createdAt,value
2018-01-05T00:00:43.364Z,1.70
2018-01-05T00:01:43.353Z,1.00
2018-01-05T00:02:43.343Z,3.30
2018-01-05T00:03:43.336Z,1.20
2018-01-05T00:04:43.324Z,1.50
2018-01-05T00:05:43.310Z,1.60
2018-01-05T00:06:43.298Z,2.20
2018-01-05T00:07:43.290Z,1.80
2018-01-05T00:08:43.281Z,1.50
2018-01-05T00:09:43.265Z,1.90
2018-01-05T00:10:43.309Z,2.80
2018-01-05T00:11:43.242Z,1.80
2018-01-05T00:12:43.231Z,1.00
2018-01-05T00:13:43.226Z,1.40
2018-01-05T00:14:43.210Z,1.40
2018-01-05T00:15:43.205Z,2.20
2018-01-05T00:16:43.185Z,1.80
2018-01-05T00:17:43.175Z,2.10
2018-01-05T00:18:43.162Z,1.60
2018-01-05T00:19:43.152Z,0.90
2018-01-05T00:20:43.145Z,2.20
2018-01-05T00:21:43.136Z,1.90
2018-01-05T00:22:43.117Z,1.50
2018-01-05T00:23:43.110Z,1.70
2018-01-05T00:24:43.095Z,1.30
2018-01-05T00:25:43.094Z,1.60
2018-01-05T00:26:43.072Z,2.50
2018-01-05T00:27:43.062Z,1.20
2018-01-05T00:28:43.055Z,1.50
2018-01-05T00:29:43.046Z,1.20
2018-01-05T00:30:43.028Z,1.50
2018-01-05T00:31:43.017Z,2.20
2018-01-05T00:32:43.018Z,2.60
2018-01-05T00:33:43.002Z,2.80
2018-01-05T00:34:42.992Z,2.70
2018-01-05T00:35:42.979Z,1.60
2018-01-05T00:36:42.961Z,4.10
2018-01-05T00:37:42.952Z,3.10
2018-01-05T00:38:42.947Z,3.00
2018-01-05T00:39:42.929Z,2.80
2018-01-05T00:40:42.918Z,1.80
2018-01-05T00:41:42.906Z,4.70
2018-01-05T00:42:42.898Z,2.90
2018-01-05T00:43:42.881Z,4.00
2018-01-05T00:44:42.872Z,4.70
2018-01-05T00:45:42.861Z,4.80
2018-01-05T00:46:42.852Z,6.00
2018-01-05T00:47:42.838Z,5.60
2018-01-05T00:48:42.826Z,6.50
2018-01-05T00:49:42.814Z,5.20
2018-01-05T00:50:42.801Z,5.80
2018-01-05T00:51:42.796Z,8.30
2018-01-05T00:52:42.798Z,4.90
2018-01-05T00:53:42.768Z,6.10
2018-01-05T00:54:42.754Z,5.30
2018-01-05T00:55:42.743Z,6.40
2018-01-05T00:56:42.736Z,6.20
2018-01-05T00:57:42.722Z,6.20
2018-01-05T00:58:42.708Z,4.90
2018-01-05T00:59:42.697Z,5.10
2018-01-05T01:00:42.690Z,5.40
2018-01-05T01:01:42.674Z,6.90
2018-01-05T01:02:42.664Z,3.50
2018-01-05T01:03:42.653Z,4.40
2018-01-05T01:04:42.641Z,8.40
2018-01-05T01:05:42.636Z,6.50
2018-01-05T01:06:42.617Z,10.20
2018-01-05T01:07:42.607Z,8.30
2018-01-05T01:08:42.593Z,4.80
2018-01-05T01:09:42.584Z,8.20
2018-01-05T01:10:42.570Z,8.80
2018-01-05T01:11:42.558Z,8.20
2018-01-05T01:12:42.549Z,5.90
2018-01-05T01:13:42.533Z,8.20
2018-01-05T01:14:42.528Z,6.30
2018-01-05T01:15:42.514Z,10.70
2018-01-05T01:16:42.498Z,7.70
2018-01-05T01:17:42.486Z,8.10
2018-01-05T01:18:42.475Z,8.70
2018-01-05T01:19:42.467Z,9.80
2018-01-05T01:20:42.451Z,6.70
2018-01-05T01:21:42.447Z,7.90
2018-01-05T01:22:42.437Z,5.60
2018-01-05T01:23:42.420Z,8.40
2018-01-05T01:24:42.412Z,9.00
2018-01-05T01:25:42.394Z,5.60
2018-01-05T01:26:42.380Z,6.60
2018-01-05T01:27:42.370Z,5.90
2018-01-05T01:28:42.361Z,7.90
2018-01-05T01:29:42.345Z,5.50
2018-01-05T01:30:42.339Z,6.00
2018-01-05T01:31:42.322Z,7.00
2018-01-05T01:32:42.310Z,5.20
2018-01-05T01:33:42.299Z,3.80
2018-01-05T01:34:42.287Z,6.50
2018-01-05T01:35:42.275Z,6.10
2018-01-05T01:36:42.262Z,8.00
2018-01-05T01:37:42.258Z,7.80
2018-01-05T01:38:42.244Z,9.30
2018-01-05T01:39:42.227Z,6.00
2018-01-05T01:40:42.220Z,8.00
2018-01-05T01:41:42.208Z,6.70
2018-01-05T01:42:42.191Z,14.50
2018-01-05T01:43:42.186Z,7.60
2018-01-05T01:44:42.171Z,11.00
2018-01-05T01:45:42.155Z,8.80
2018-01-05T01:46:42.144Z,7.90
2018-01-05T01:47:42.135Z,7.10
2018-01-05T01:48:42.119Z,7.60
2018-01-05T01:49:42.105Z,9.60
2018-01-05T01:50:42.097Z,7.40
2018-01-05T01:51:42.083Z,11.00
2018-01-05T01:52:42.071Z,10.70
2018-01-05T01:53:42.057Z,9.20
2018-01-05T01:54:42.047Z,9.90
2018-01-05T01:55:42.034Z,8.50
2018-01-05T01:56:42.023Z,10.00
2018-01-05T01:57:42.010Z,9.10
2018-01-05T01:58:41.998Z,10.10
2018-01-05T01:59:41.992Z,12.60
2018-01-05T02:00:41.977Z,13.00
2018-01-05T02:01:41.962Z,9.40
2018-01-05T02:02:41.948Z,11.10
2018-01-05T02:03:41.938Z,8.10
2018-01-05T02:04:41.924Z,12.40
2018-01-05T02:05:41.911Z,12.30
2018-01-05T02:06:41.899Z,11.50
2018-01-05T02:07:41.886Z,8.90
2018-01-05T02:08:41.880Z,16.00
2018-01-05T02:09:41.867Z,12.90
2018-01-05T02:10:41.853Z,11.70
2018-01-05T02:11:41.838Z,13.50
2018-01-05T02:12:41.823Z,9.40
2018-01-05T02:13:41.813Z,8.60
2018-01-05T02:14:41.806Z,11.50
2018-01-05T02:15:41.792Z,8.30
2018-01-05T02:16:41.780Z,13.60
2018-01-05T02:17:41.765Z,10.70
2018-01-05T02:18:41.753Z,12.40
2018-01-05T02:19:41.741Z,10.40
2018-01-05T02:20:41.729Z,10.50
2018-01-05T02:21:41.716Z,12.80
2018-01-05T02:22:41.705Z,8.90
2018-01-05T02:23:41.692Z,8.40
2018-01-05T02:24:41.680Z,10.30
2018-01-05T02:25:41.672Z,12.30
2018-01-05T02:26:41.657Z,11.30
2018-01-05T02:27:41.647Z,8.20
2018-01-05T02:28:41.637Z,11.10
2018-01-05T02:29:41.628Z,11.10
2018-01-05T02:30:41.606Z,10.00
2018-01-05T02:31:41.605Z,9.70
2018-01-05T02:32:41.583Z,9.90
2018-01-05T02:33:41.573Z,11.30
2018-01-05T02:34:41.561Z,9.90
2018-01-05T02:35:41.570Z,9.20
2018-01-05T02:36:41.543Z,9.30
2018-01-05T02:37:41.525Z,11.00
2018-01-05T02:38:41.512Z,12.60
2018-01-05T02:39:41.501Z,10.40
2018-01-05T02:40:41.485Z,12.80
2018-01-05T02:41:41.482Z,9.60
2018-01-05T02:42:41.462Z,14.10
2018-01-05T02:43:41.457Z,15.80
2018-01-05T02:44:41.439Z,11.70
2018-01-05T02:45:41.426Z,10.10
2018-01-05T02:46:41.426Z,10.10
2018-01-05T02:47:41.404Z,11.30
2018-01-05T02:48:41.391Z,12.20
2018-01-05T02:49:41.383Z,11.30
2018-01-05T02:50:41.371Z,8.70
2018-01-05T02:51:41.355Z,8.30
2018-01-05T02:52:41.341Z,9.70
2018-01-05T02:53:41.336Z,7.90
2018-01-05T02:54:41.326Z,7.10
2018-01-05T02:55:41.306Z,10.00
2018-01-05T02:56:41.299Z,8.80
2018-01-05T02:57:41.288Z,10.70
2018-01-05T02:58:41.284Z,8.90
2018-01-05T02:59:41.261Z,11.10
2018-01-05T03:00:41.250Z,11.60
2018-01-05T03:01:41.235Z,7.80
2018-01-05T03:02:41.226Z,10.00
2018-01-05T03:03:41.207Z,11.60
2018-01-05T03:04:41.196Z,10.00
2018-01-05T03:05:41.185Z,9.60
2018-01-05T03:06:41.174Z,9.10
2018-01-05T03:07:41.161Z,11.70
2018-01-05T03:08:41.147Z,9.50
2018-01-05T03:09:41.134Z,8.40
2018-01-05T03:10:41.125Z,8.50
2018-01-05T03:11:41.113Z,7.20
2018-01-05T03:12:41.099Z,7.50
2018-01-05T03:13:41.086Z,9.90
2018-01-05T03:14:41.081Z,14.00
2018-01-05T03:15:41.068Z,9.90
2018-01-05T03:16:41.053Z,10.20
2018-01-05T03:17:41.039Z,8.50
2018-01-05T03:18:41.027Z,7.80
2018-01-05T03:19:41.016Z,9.70
2018-01-05T03:20:41.004Z,8.80
2018-01-05T03:21:40.993Z,8.80
2018-01-05T03:22:40.985Z,8.50
2018-01-05T03:23:40.974Z,5.30
2018-01-05T03:24:40.955Z,6.50
2018-01-05T03:25:40.944Z,10.50
2018-01-05T03:26:40.935Z,8.20
2018-01-05T03:27:40.919Z,9.20
2018-01-05T03:28:40.906Z,11.70
2018-01-05T03:29:40.944Z,10.00
2018-01-05T03:30:40.887Z,10.30
2018-01-05T03:31:40.870Z,8.80
2018-01-05T03:32:40.858Z,6.60
2018-01-05T03:33:40.853Z,7.00
2018-01-05T03:34:40.839Z,8.40
2018-01-05T03:35:40.823Z,9.80
2018-01-05T03:36:40.816Z,10.30
2018-01-05T03:37:40.801Z,9.30
2018-01-05T03:38:40.787Z,8.80
2018-01-05T03:39:40.774Z,8.60
2018-01-05T03:40:40.762Z,10.40
2018-01-05T03:41:40.756Z,8.40
2018-01-05T03:42:40.747Z,9.80
2018-01-05T03:43:40.729Z,7.50
2018-01-05T03:44:40.720Z,8.60
2018-01-05T03:45:40.706Z,12.20
2018-01-05T03:46:40.690Z,7.90
2018-01-05T03:47:40.686Z,8.60
2018-01-05T03:48:40.666Z,7.00
2018-01-05T03:49:40.654Z,9.90
2018-01-05T03:50:40.643Z,7.60
2018-01-05T03:51:40.631Z,11.70
2018-01-05T03:52:40.620Z,7.40
2018-01-05T03:53:40.609Z,9.80
2018-01-05T03:54:40.596Z,6.50
2018-01-05T03:55:40.582Z,7.30
2018-01-05T03:56:40.569Z,6.90
2018-01-05T03:57:40.558Z,10.40
2018-01-05T03:58:40.547Z,11.70
2018-01-05T03:59:40.539Z,7.80
2018-01-05T04:00:40.525Z,10.30
2018-01-05T04:01:40.517Z,11.10
2018-01-05T04:02:40.499Z,6.60
2018-01-05T04:03:40.490Z,7.20
2018-01-05T04:04:40.474Z,9.30
2018-01-05T04:05:40.464Z,8.30
2018-01-05T04:06:40.452Z,5.20
2018-01-05T04:07:40.440Z,9.60
2018-01-05T04:08:40.433Z,8.10
2018-01-05T04:09:40.421Z,5.60
2018-01-05T04:10:40.458Z,6.70
2018-01-05T04:11:40.400Z,6.50
2018-01-05T04:12:40.380Z,4.90
2018-01-05T04:13:40.369Z,7.80
2018-01-05T04:14:40.362Z,7.80
2018-01-05T04:15:40.345Z,12.70
2018-01-05T04:16:40.334Z,15.10
2018-01-05T04:17:40.326Z,8.90
2018-01-05T04:18:40.311Z,9.40
2018-01-05T04:19:40.299Z,8.80
2018-01-05T04:20:40.286Z,11.70
2018-01-05T04:21:40.273Z,6.20
2018-01-05T04:22:40.262Z,5.70
2018-01-05T04:23:40.252Z,8.40
2018-01-05T04:24:40.244Z,7.10
2018-01-05T04:25:40.229Z,6.50
2018-01-05T04:26:40.214Z,6.60
2018-01-05T04:27:40.205Z,6.80
2018-01-05T04:28:40.189Z,8.20
2018-01-05T04:29:40.178Z,7.50
2018-01-05T04:30:40.167Z,6.60
2018-01-05T04:31:40.155Z,8.50
2018-01-05T04:32:40.144Z,8.10
2018-01-05T04:33:40.130Z,5.40
2018-01-05T04:34:40.118Z,7.20
2018-01-05T04:35:40.106Z,6.90
2018-01-05T04:36:40.099Z,6.50
2018-01-05T04:37:40.092Z,8.40
2018-01-05T04:38:40.072Z,5.20
2018-01-05T04:39:40.065Z,6.40
2018-01-05T04:40:40.052Z,5.50
2018-01-05T04:41:40.050Z,3.40
2018-01-05T04:42:40.030Z,3.30
2018-01-05T04:43:40.020Z,4.60
2018-01-05T04:44:40.000Z,3.10
2018-01-05T04:45:39.988Z,2.80
2018-01-05T04:46:39.982Z,3.30
2018-01-05T04:47:39.966Z,2.60
2018-01-05T04:48:39.953Z,2.10
2018-01-05T04:49:39.940Z,3.50
2018-01-05T04:50:39.925Z,3.00
2018-01-05T04:51:39.916Z,2.70
2018-01-05T04:52:39.907Z,1.50
2018-01-05T04:53:39.892Z,2.20
2018-01-05T04:54:39.879Z,1.50
2018-01-05T04:55:39.873Z,2.40
2018-01-05T04:56:39.854Z,1.20
2018-01-05T04:57:39.846Z,1.10
2018-01-05T04:58:39.834Z,1.80
2018-01-05T04:59:39.822Z,1.00
2018-01-05T05:00:39.808Z,1.00
2018-01-05T05:01:39.804Z,0.80
2018-01-05T05:02:39.792Z,2.30
2018-01-05T05:03:39.777Z,2.20
2018-01-05T05:04:39.762Z,1.10
2018-01-05T05:05:39.750Z,1.70
2018-01-05T05:06:39.746Z,1.00
2018-01-05T05:07:39.734Z,2.10
2018-01-05T05:08:39.716Z,1.00
2018-01-05T05:09:39.703Z,1.30
2018-01-05T05:10:39.694Z,1.10
2018-01-05T05:11:39.682Z,1.40
2018-01-05T05:12:39.669Z,1.50
2018-01-05T05:13:39.660Z,1.00
2018-01-05T05:14:39.651Z,1.00
2018-01-05T05:15:39.636Z,0.90
2018-01-05T05:16:39.623Z,1.50
2018-01-05T05:17:39.612Z,1.20
2018-01-05T05:18:39.606Z,0.70
2018-01-05T05:19:39.593Z,0.90
2018-01-05T05:20:39.576Z,2.00
2018-01-05T05:21:39.566Z,1.50
2018-01-05T05:22:39.554Z,1.30
2018-01-05T05:23:39.545Z,1.40
2018-01-05T05:24:39.534Z,1.10
2018-01-05T05:25:39.519Z,0.90
2018-01-05T05:26:39.509Z,1.30
2018-01-05T05:27:39.507Z,0.70
2018-01-05T05:28:39.491Z,0.80
2018-01-05T05:29:39.485Z,2.60
2018-01-05T05:30:39.463Z,0.90
2018-01-05T05:31:39.453Z,1.10
2018-01-05T05:32:39.441Z,0.80
2018-01-05T05:33:39.429Z,1.60
2018-01-05T05:34:39.423Z,0.80
2018-01-05T05:35:39.407Z,1.40
2018-01-05T05:36:39.400Z,0.80
2018-01-05T05:37:39.393Z,1.30
2018-01-05T05:38:39.382Z,2.50
2018-01-05T05:39:39.361Z,0.90
2018-01-05T05:40:39.351Z,1.70
2018-01-05T05:41:39.338Z,1.60
2018-01-05T05:42:39.327Z,0.80
2018-01-05T05:43:39.321Z,0.90
2018-01-05T05:44:39.304Z,1.10
2018-01-05T05:45:39.290Z,1.00
2018-01-05T05:46:39.288Z,0.90
2018-01-05T05:47:39.275Z,0.90
2018-01-05T05:48:39.256Z,1.20
2018-01-05T05:49:39.246Z,0.80
2018-01-05T05:50:39.234Z,1.20
2018-01-05T05:51:39.228Z,2.00
2018-01-05T05:52:39.217Z,1.00
2018-01-05T05:53:39.204Z,1.00
2018-01-05T05:54:39.187Z,1.20
2018-01-05T05:55:39.177Z,0.90
2018-01-05T05:56:39.165Z,0.80
2018-01-05T05:57:39.153Z,0.90
2018-01-05T05:58:39.146Z,0.80
2018-01-05T05:59:39.138Z,0.90
2018-01-05T06:00:39.116Z,1.20
2018-01-05T06:01:39.106Z,0.80
2018-01-05T06:02:39.095Z,1.30
2018-01-05T06:03:39.085Z,1.10
2018-01-05T06:04:39.072Z,1.20
2018-01-05T06:05:39.064Z,1.50
2018-01-05T06:06:39.049Z,0.90
2018-01-05T06:07:39.038Z,0.80
2018-01-05T06:08:39.030Z,0.80
2018-01-05T06:09:39.015Z,0.90
2018-01-05T06:10:39.003Z,0.80
2018-01-05T06:11:38.992Z,1.60
2018-01-05T06:12:38.989Z,0.70
2018-01-05T06:13:38.968Z,1.70
2018-01-05T06:14:38.956Z,0.70
2018-01-05T06:15:38.949Z,1.00
2018-01-05T06:16:38.937Z,0.90
2018-01-05T06:17:38.921Z,1.20
2018-01-05T06:18:38.915Z,0.90
2018-01-05T06:19:38.904Z,1.10
2018-01-05T06:20:38.892Z,0.70
2018-01-05T06:21:38.876Z,0.80
2018-01-05T06:22:38.862Z,0.70
2018-01-05T06:23:38.853Z,0.80
2018-01-05T06:24:38.847Z,0.80
2018-01-05T06:25:38.830Z,0.90
2018-01-05T06:26:38.817Z,0.90
2018-01-05T06:27:38.805Z,1.60
2018-01-05T06:28:38.793Z,1.10
2018-01-05T06:29:38.781Z,0.90
2018-01-05T06:30:38.770Z,0.80
2018-01-05T06:31:38.765Z,0.90
2018-01-05T06:32:38.752Z,2.10
2018-01-05T06:33:38.733Z,0.80
2018-01-05T06:34:38.723Z,0.80
2018-01-05T06:35:38.718Z,1.30
2018-01-05T06:36:38.700Z,0.80
2018-01-05T06:37:38.693Z,1.80
2018-01-05T06:38:38.684Z,1.20
2018-01-05T06:39:38.667Z,0.80
2018-01-05T06:40:38.653Z,1.80
2018-01-05T06:41:38.641Z,0.80
2018-01-05T06:42:38.629Z,0.90
2018-01-05T06:43:38.620Z,1.10
2018-01-05T06:44:38.606Z,1.60
2018-01-05T06:45:38.597Z,1.10
2018-01-05T06:46:38.591Z,1.50
2018-01-05T06:47:38.570Z,1.00
2018-01-05T06:48:38.559Z,1.10
2018-01-05T06:49:38.554Z,1.00
2018-01-05T06:50:38.542Z,1.00
2018-01-05T06:51:38.525Z,0.80
2018-01-05T06:52:38.518Z,1.10
2018-01-05T06:53:38.506Z,1.20
2018-01-05T06:54:38.494Z,0.80
2018-01-05T06:55:38.477Z,1.40
2018-01-05T06:56:38.464Z,1.60
2018-01-05T06:57:38.452Z,1.00
2018-01-05T06:58:38.442Z,1.10
2018-01-05T06:59:38.432Z,1.90
2018-01-05T07:00:38.416Z,1.50
2018-01-05T07:01:38.409Z,1.00
2018-01-05T07:02:38.394Z,1.00
2018-01-05T07:03:38.386Z,1.00
2018-01-05T07:04:38.367Z,1.10
2018-01-05T07:05:38.362Z,1.20
2018-01-05T07:06:38.348Z,1.40
2018-01-05T07:07:38.345Z,1.30
2018-01-05T07:08:38.330Z,1.00
2018-01-05T07:09:38.309Z,1.80
2018-01-05T07:10:38.302Z,0.90
2018-01-05T07:11:38.286Z,1.10
2018-01-05T07:12:38.276Z,2.00
2018-01-05T07:13:38.264Z,1.30
2018-01-05T07:14:38.248Z,1.50
2018-01-05T07:15:38.242Z,1.10
2018-01-05T07:16:38.222Z,1.20
2018-01-05T07:17:38.212Z,1.40
2018-01-05T07:18:38.204Z,1.40
2018-01-05T07:19:38.190Z,2.10
2018-01-05T07:20:38.173Z,1.20
2018-01-05T07:21:38.160Z,1.40
2018-01-05T07:22:38.151Z,1.10
2018-01-05T07:23:38.142Z,1.20
2018-01-05T07:24:38.127Z,1.50
2018-01-05T07:25:38.114Z,1.10
2018-01-05T07:26:38.102Z,1.00
2018-01-05T07:27:38.089Z,2.10
2018-01-05T07:28:38.077Z,2.00
2018-01-05T07:29:38.069Z,1.80
2018-01-05T07:30:38.053Z,1.70
2018-01-05T07:31:38.045Z,1.00
2018-01-05T07:32:38.034Z,1.40
2018-01-05T07:33:38.026Z,1.20
2018-01-05T07:34:38.005Z,1.40
2018-01-05T07:35:37.998Z,1.30
2018-01-05T07:36:37.980Z,1.10
2018-01-05T07:37:37.970Z,1.20
2018-01-05T07:38:37.955Z,1.90
2018-01-05T07:39:37.950Z,1.10
2018-01-05T07:40:37.930Z,1.30
2018-01-05T07:41:37.920Z,1.10
2018-01-05T07:42:37.911Z,1.20
2018-01-05T07:43:37.894Z,1.10
2018-01-05T07:44:37.881Z,1.40
2018-01-05T07:45:37.872Z,1.30
2018-01-05T07:46:37.859Z,1.00
2018-01-05T07:47:37.846Z,1.10
2018-01-05T07:48:37.838Z,1.90
2018-01-05T07:49:37.822Z,1.20
2018-01-05T07:50:37.811Z,1.60
2018-01-05T07:51:37.797Z,1.20
2018-01-05T07:52:37.784Z,1.10
2018-01-05T07:53:37.773Z,1.10
2018-01-05T07:54:37.766Z,1.50
2018-01-05T07:55:37.751Z,1.30
2018-01-05T07:56:37.736Z,1.70
2018-01-05T07:57:37.731Z,2.10
2018-01-05T07:58:37.713Z,1.50
2018-01-05T07:59:37.709Z,1.60
2018-01-05T08:00:37.690Z,1.30
2018-01-05T08:01:37.680Z,2.50
2018-01-05T08:02:37.667Z,1.80
2018-01-05T08:03:37.656Z,1.20
2018-01-05T08:04:37.644Z,2.10
2018-01-05T08:05:37.632Z,1.40
2018-01-05T08:06:37.623Z,1.70
2018-01-05T08:07:37.605Z,1.40
2018-01-05T08:08:37.594Z,1.00
2018-01-05T08:09:37.584Z,1.30
2018-01-05T08:10:37.570Z,2.20
2018-01-05T08:11:37.564Z,1.80
2018-01-05T08:12:37.552Z,1.30
2018-01-05T08:13:37.533Z,1.40
2018-01-05T08:14:37.522Z,1.40
2018-01-05T08:15:37.509Z,1.90
2018-01-05T08:16:37.509Z,2.10
2018-01-05T08:17:37.487Z,1.20
2018-01-05T08:18:37.473Z,1.50
2018-01-05T08:19:37.461Z,2.30
2018-01-05T08:20:37.450Z,1.50
2018-01-05T08:21:37.438Z,1.30
2018-01-05T08:22:37.426Z,1.70
2018-01-05T08:23:37.423Z,1.60
2018-01-05T08:24:37.402Z,1.50
2018-01-05T08:25:37.396Z,1.90
2018-01-05T08:26:37.380Z,1.70
2018-01-05T08:27:37.368Z,1.40
2018-01-05T08:28:37.355Z,2.30
2018-01-05T08:29:37.347Z,1.30
2018-01-05T08:30:37.332Z,1.20
2018-01-05T08:31:37.323Z,2.30
2018-01-05T08:32:37.309Z,1.00
2018-01-05T08:33:37.296Z,1.80
2018-01-05T08:34:37.287Z,1.70
2018-01-05T08:35:37.280Z,2.30
2018-01-05T08:36:37.260Z,2.50
2018-01-05T08:37:37.251Z,1.20
2018-01-05T08:38:37.238Z,1.40
2018-01-05T08:39:37.228Z,1.10
2018-01-05T08:40:37.221Z,1.30
2018-01-05T08:41:37.210Z,2.60
2018-01-05T08:42:37.203Z,1.80
2018-01-05T08:43:37.186Z,1.30
2018-01-05T08:44:37.168Z,1.50
2018-01-05T08:45:37.161Z,3.20
2018-01-05T08:46:37.152Z,2.40
2018-01-05T08:47:37.133Z,2.70
2018-01-05T08:48:37.123Z,1.80
2018-01-05T08:49:37.112Z,1.80
2018-01-05T08:50:37.105Z,1.30
2018-01-05T08:51:37.096Z,1.80
2018-01-05T08:52:37.074Z,1.50
2018-01-05T08:53:37.066Z,1.80
2018-01-05T08:54:37.054Z,1.80
2018-01-05T08:55:37.045Z,1.40
2018-01-05T08:56:37.032Z,2.20
2018-01-05T08:57:37.024Z,1.70
2018-01-05T08:58:37.012Z,1.90
2018-01-05T08:59:36.998Z,1.20
2018-01-05T09:00:36.986Z,1.20
2018-01-05T09:01:36.981Z,3.10
2018-01-05T09:02:36.968Z,1.50
2018-01-05T09:03:36.962Z,1.10
2018-01-05T09:04:36.948Z,1.20
2018-01-05T09:05:36.932Z,1.70
2018-01-05T09:06:36.922Z,2.30
2018-01-05T09:07:36.910Z,1.60
2018-01-05T09:08:36.898Z,1.30
2018-01-05T09:09:36.886Z,1.50
2018-01-05T09:10:36.875Z,2.40
2018-01-05T09:11:36.867Z,1.60
2018-01-05T09:12:36.853Z,1.30
2018-01-05T09:13:36.843Z,1.60
2018-01-05T09:14:36.846Z,1.60
2018-01-05T09:15:36.824Z,1.40
2018-01-05T09:16:36.813Z,1.70
2018-01-05T09:17:36.801Z,1.90
2018-01-05T09:18:36.791Z,2.90
2018-01-05T09:19:36.785Z,1.30
2018-01-05T09:20:36.775Z,1.20
2018-01-05T09:21:36.757Z,2.30
2018-01-05T09:22:36.748Z,1.70
2018-01-05T09:23:36.740Z,1.50
2018-01-05T09:24:36.728Z,1.50
2018-01-05T09:25:36.724Z,1.30
2018-01-05T09:26:36.713Z,1.40
2018-01-05T09:27:36.700Z,1.30
2018-01-05T09:28:36.686Z,1.80
2018-01-05T09:29:36.682Z,1.30
2018-01-05T09:30:36.665Z,1.60
2018-01-05T09:31:36.662Z,1.30
2018-01-05T09:32:36.644Z,2.40
2018-01-05T09:33:36.634Z,2.40
2018-01-05T09:34:36.630Z,1.10
2018-01-05T09:35:36.615Z,2.00
2018-01-05T09:36:36.605Z,1.80
2018-01-05T09:37:36.596Z,3.00
2018-01-05T09:38:36.584Z,1.70
2018-01-05T09:39:36.578Z,1.00
2018-01-05T09:40:36.564Z,1.40
2018-01-05T09:41:36.555Z,1.30
2018-01-05T09:42:36.545Z,2.30
2018-01-05T09:43:36.536Z,1.20
2018-01-05T09:44:36.525Z,1.00
2018-01-05T09:45:36.514Z,1.50
2018-01-05T09:46:36.506Z,2.30
2018-01-05T09:47:36.501Z,1.30
2018-01-05T09:48:36.489Z,1.60
2018-01-05T09:49:36.478Z,1.20
2018-01-05T09:50:36.468Z,1.20
2018-01-05T09:51:36.461Z,1.50
2018-01-05T09:52:36.455Z,1.10
2018-01-05T09:53:36.440Z,1.50
2018-01-05T09:54:36.429Z,2.60
2018-01-05T09:55:36.421Z,2.00
2018-01-05T09:56:36.411Z,1.40
2018-01-05T09:57:36.402Z,2.60
2018-01-05T09:58:36.400Z,2.30
2018-01-05T09:59:36.383Z,1.80
2018-01-05T10:00:36.373Z,1.30
2018-01-05T10:01:36.363Z,1.70
2018-01-05T10:02:36.359Z,1.80
2018-01-05T10:03:36.351Z,1.70
2018-01-05T10:04:36.338Z,1.50
2018-01-05T10:05:36.325Z,1.20
2018-01-05T10:06:36.319Z,3.10
2018-01-05T10:07:36.309Z,1.30
2018-01-05T10:08:36.300Z,1.20
2018-01-05T10:09:36.290Z,2.90
2018-01-05T10:10:36.280Z,1.20
2018-01-05T10:11:36.277Z,1.10
2018-01-05T10:12:36.262Z,1.20
2018-01-05T10:13:36.313Z,1.80
2018-01-05T10:14:36.242Z,2.30
2018-01-05T10:15:36.234Z,1.70
2018-01-05T10:16:36.228Z,1.10
2018-01-05T10:17:36.215Z,2.10
2018-01-05T10:18:36.206Z,1.60
2018-01-05T10:19:36.201Z,1.10
2018-01-05T10:20:36.184Z,1.50
2018-01-05T10:21:36.176Z,2.40
2018-01-05T10:22:36.174Z,1.10
2018-01-05T10:23:36.161Z,2.30
2018-01-05T10:24:36.151Z,1.80
2018-01-05T10:25:36.140Z,1.40
2018-01-05T10:26:36.131Z,2.20
2018-01-05T10:27:36.122Z,2.70
2018-01-05T10:28:36.111Z,1.10
2018-01-05T10:29:36.100Z,2.40
2018-01-05T10:30:36.094Z,2.10
2018-01-05T10:31:36.090Z,2.30
2018-01-05T10:32:36.072Z,1.80
2018-01-05T10:33:36.064Z,1.10
2018-01-05T10:34:36.055Z,3.60
2018-01-05T10:35:36.045Z,1.00
2018-01-05T10:36:36.037Z,2.20
2018-01-05T10:37:36.029Z,1.40
2018-01-05T10:38:36.017Z,1.60
2018-01-05T10:39:36.013Z,2.20
2018-01-05T10:40:36.003Z,1.40
2018-01-05T10:41:35.989Z,1.80
2018-01-05T10:42:35.980Z,1.40
2018-01-05T10:43:35.972Z,2.60
2018-01-05T10:44:35.961Z,1.60
2018-01-05T10:45:35.952Z,1.30
2018-01-05T10:46:35.944Z,1.60
2018-01-05T10:47:35.936Z,2.20
2018-01-05T10:48:35.924Z,1.50
2018-01-05T10:49:35.922Z,4.10
2018-01-05T10:50:35.909Z,2.90
2018-01-05T10:51:35.901Z,2.20
2018-01-05T10:52:35.886Z,2.50
2018-01-05T10:53:35.876Z,2.20
2018-01-05T10:54:35.873Z,1.50
2018-01-05T10:55:35.866Z,1.00
2018-01-05T10:56:35.855Z,2.20
2018-01-05T10:57:35.838Z,3.10
2018-01-05T10:58:35.830Z,2.20
2018-01-05T10:59:35.821Z,1.30
2018-01-05T11:00:35.812Z,2.60
2018-01-05T11:01:35.806Z,1.80
2018-01-05T11:02:35.792Z,1.70
2018-01-05T11:03:35.782Z,1.50
2018-01-05T11:04:35.773Z,2.10
2018-01-05T11:05:35.763Z,1.60
2018-01-05T11:06:35.815Z,1.20
2018-01-05T11:07:35.751Z,1.40
2018-01-05T11:08:35.744Z,1.30
2018-01-05T11:09:35.730Z,2.30
2018-01-05T11:10:35.717Z,2.10
2018-01-05T11:11:35.707Z,1.50
2018-01-05T11:12:35.701Z,1.20
2018-01-05T11:13:35.688Z,2.30
2018-01-05T11:14:35.681Z,3.60
2018-01-05T11:15:35.673Z,1.20
2018-01-05T11:16:35.660Z,1.40
2018-01-05T11:17:35.652Z,1.10
2018-01-05T11:18:35.645Z,1.10
2018-01-05T11:19:35.635Z,1.80
2018-01-05T11:20:35.628Z,1.40
2018-01-05T11:21:35.623Z,2.20
2018-01-05T11:22:35.607Z,2.30
2018-01-05T11:23:35.597Z,1.10
2018-01-05T11:24:35.589Z,0.90
2018-01-05T11:25:35.578Z,2.70
2018-01-05T11:26:35.567Z,4.00
2018-01-05T11:27:35.562Z,1.80
2018-01-05T11:28:35.556Z,1.20
2018-01-05T11:29:35.544Z,2.90
2018-01-05T11:30:35.540Z,1.10
2018-01-05T11:31:35.523Z,1.10
2018-01-05T11:32:35.519Z,1.20
2018-01-05T11:33:35.505Z,0.90
2018-01-05T11:34:35.496Z,1.00
2018-01-05T11:35:35.486Z,1.10
2018-01-05T11:36:35.475Z,1.70
2018-01-05T11:37:35.467Z,1.20
2018-01-05T11:38:35.457Z,1.80
2018-01-05T11:39:35.455Z,1.60
2018-01-05T11:40:35.440Z,1.20
2018-01-05T11:41:35.431Z,1.50
2018-01-05T11:42:35.421Z,1.40
2018-01-05T11:43:35.408Z,2.60
2018-01-05T11:44:35.399Z,1.10
2018-01-05T11:45:35.394Z,1.50
2018-01-05T11:46:35.381Z,1.20
2018-01-05T11:47:35.384Z,1.30
2018-01-05T11:48:35.364Z,1.30
2018-01-05T11:49:35.352Z,1.90
2018-01-05T11:50:35.344Z,2.10
2018-01-05T11:51:35.334Z,1.00
2018-01-05T11:52:35.324Z,1.90
2018-01-05T11:53:35.318Z,4.00
2018-01-05T11:54:35.304Z,2.60
2018-01-05T11:55:35.303Z,2.00
2018-01-05T11:56:35.292Z,1.10
2018-01-05T11:57:35.283Z,1.00
2018-01-05T11:58:35.272Z,0.90
2018-01-05T11:59:35.260Z,2.40
2018-01-05T12:00:35.260Z,1.10
2018-01-05T12:01:35.240Z,1.30
2018-01-05T12:02:35.232Z,2.00
2018-01-05T12:03:35.221Z,2.20
2018-01-05T12:04:35.209Z,1.10
2018-01-05T12:05:35.202Z,1.70
2018-01-05T12:06:35.192Z,1.90
2018-01-05T12:07:35.184Z,0.80
2018-01-05T12:08:35.181Z,1.20
2018-01-05T12:09:35.164Z,0.90
2018-01-05T12:10:35.157Z,1.80
2018-01-05T12:11:35.154Z,1.00
2018-01-05T12:12:35.135Z,1.40
2018-01-05T12:13:35.124Z,1.10
2018-01-05T12:14:35.123Z,2.10
2018-01-05T12:15:35.116Z,1.10
2018-01-05T12:16:35.102Z,1.10
2018-01-05T12:17:35.086Z,1.20
2018-01-05T12:18:35.076Z,2.10
2018-01-05T12:19:35.069Z,1.60
2018-01-05T12:20:35.057Z,1.40
2018-01-05T12:21:35.048Z,1.50
2018-01-05T12:22:35.041Z,0.90
2018-01-05T12:23:35.041Z,1.10
2018-01-05T12:24:35.019Z,1.00
2018-01-05T12:25:35.011Z,1.60
2018-01-05T12:26:35.012Z,1.60
2018-01-05T12:27:34.997Z,1.50
2018-01-05T12:28:34.981Z,1.10
2018-01-05T12:29:34.978Z,1.40
2018-01-05T12:30:34.969Z,1.30
2018-01-05T12:31:34.955Z,1.00
2018-01-05T12:32:34.951Z,1.00
2018-01-05T12:33:34.936Z,3.50
2018-01-05T12:34:34.928Z,0.90
2018-01-05T12:35:34.916Z,1.20
2018-01-05T12:36:34.908Z,1.40
2018-01-05T12:37:34.902Z,0.80
2018-01-05T12:38:34.889Z,1.00
2018-01-05T12:39:34.883Z,1.00
2018-01-05T12:40:34.869Z,1.10
2018-01-05T12:41:34.858Z,0.80
2018-01-05T12:42:34.850Z,1.20
2018-01-05T12:43:34.847Z,1.40
2018-01-05T12:44:34.835Z,0.80
2018-01-05T12:45:34.821Z,1.80
2018-01-05T12:46:34.814Z,1.00
2018-01-05T12:47:34.807Z,1.20
2018-01-05T12:48:34.797Z,4.60
2018-01-05T12:49:34.786Z,1.00
2018-01-05T12:50:34.774Z,1.00
2018-01-05T12:51:34.763Z,1.10
2018-01-05T12:52:34.762Z,2.50
2018-01-05T12:53:34.745Z,1.00
2018-01-05T12:54:34.740Z,0.90
2018-01-05T12:55:34.726Z,3.90
2018-01-05T12:56:34.716Z,1.00
2018-01-05T12:57:34.734Z,1.00
2018-01-05T12:58:34.700Z,0.90
2018-01-05T12:59:34.687Z,1.40
2018-01-05T13:00:34.689Z,0.80
2018-01-05T13:01:34.669Z,1.60
2018-01-05T13:02:34.659Z,1.00
2018-01-05T13:03:34.649Z,0.80
2018-01-05T13:04:34.645Z,1.20
2018-01-05T13:05:34.632Z,2.20
2018-01-05T13:06:34.622Z,1.40
2018-01-05T13:07:34.615Z,1.80
2018-01-05T13:08:34.603Z,1.20
2018-01-05T13:09:34.592Z,2.00
2018-01-05T13:10:34.591Z,1.60
2018-01-05T13:11:34.582Z,0.90
2018-01-05T13:12:34.565Z,1.00
2018-01-05T13:13:34.567Z,1.00
2018-01-05T13:14:34.551Z,1.70
2018-01-05T13:15:34.539Z,0.70
2018-01-05T13:16:34.527Z,0.80